sensor_id;sensor_type;location;lat;lon;timestamp;P1;durP1;ratioP1;P2;durP2;ratioP2
83840;SDS011;73868;52.172;10.668;2023-12-14T00:00:43;6.83;;;6.13;;
83840;SDS011;73868;52.172;10.668;2023-12-14T00:03:09;7.33;;;5.57;;
83840;SDS011;73868;52.172;10.668;2023-12-14T00:05:35;7.47;;;6.67;;
83840;SDS011;73868;52.172;10.668;2023-12-14T00:08:00;7.43;;;6.73;;
83840;SDS011;73868;52.172;10.668;2023-12-14T00:10:26;7.70;;;6.77;;
83840;SDS011;73868;52.172;10.668;2023-12-14T00:12:52;6.53;;;5.93;;
83840;SDS011;73868;52.172;10.668;2023-12-14T00:15:20;7.23;;;6.53;;
83840;SDS011;73868;52.172;10.668;2023-12-14T00:17:45;7.23;;;6.53;;
83840;SDS011;73868;52.172;10.668;2023-12-14T00:20:12;8.47;;;7.10;;
83840;SDS011;73868;52.172;10.668;2023-12-14T00:22:39;8.50;;;7.27;;
83840;SDS011;73868;52.172;10.668;2023-12-14T00:25:05;8.67;;;7.40;;
83840;SDS011;73868;52.172;10.668;2023-12-14T00:27:30;9.37;;;7.37;;
83840;SDS011;73868;52.172;10.668;2023-12-14T00:29:56;9.80;;;8.17;;
83840;SDS011;73868;52.172;10.668;2023-12-14T00:32:21;8.87;;;7.97;;
83840;SDS011;73868;52.172;10.668;2023-12-14T00:34:47;8.70;;;7.80;;
83840;SDS011;73868;52.172;10.668;2023-12-14T00:37:13;10.70;;;9.07;;
83840;SDS011;73868;52.172;10.668;2023-12-14T00:39:39;9.00;;;7.80;;
83840;SDS011;73868;52.172;10.668;2023-12-14T00:42:05;9.77;;;8.70;;
83840;SDS011;73868;52.172;10.668;2023-12-14T00:44:30;10.30;;;8.80;;
83840;SDS011;73868;52.172;10.668;2023-12-14T00:46:56;10.17;;;8.30;;
83840;SDS011;73868;52.172;10.668;2023-12-14T00:49:23;10.97;;;8.97;;
83840;SDS011;73868;52.172;10.668;2023-12-14T00:51:49;9.93;;;8.17;;
83840;SDS011;73868;52.172;10.668;2023-12-14T00:54:14;11.33;;;9.07;;
83840;SDS011;73868;52.172;10.668;2023-12-14T00:56:40;11.13;;;8.43;;
83840;SDS011;73868;52.172;10.668;2023-12-14T00:59:05;13.33;;;9.03;;
83840;SDS011;73868;52.172;10.668;2023-12-14T01:01:31;11.20;;;8.83;;
83840;SDS011;73868;52.172;10.668;2023-12-14T01:03:57;11.93;;;8.80;;
83840;SDS011;73868;52.172;10.668;2023-12-14T01:06:24;11.57;;;8.30;;
83840;SDS011;73868;52.172;10.668;2023-12-14T01:08:50;11.83;;;8.73;;
83840;SDS011;73868;52.172;10.668;2023-12-14T01:11:15;10.03;;;8.93;;
83840;SDS011;73868;52.172;10.668;2023-12-14T01:13:41;12.20;;;9.40;;
83840;SDS011;73868;52.172;10.668;2023-12-14T01:16:06;11.87;;;9.90;;
83840;SDS011;73868;52.172;10.668;2023-12-14T01:18:32;15.20;;;10.43;;
83840;SDS011;73868;52.172;10.668;2023-12-14T01:20:58;13.30;;;9.63;;
83840;SDS011;73868;52.172;10.668;2023-12-14T01:23:23;10.67;;;8.97;;
83840;SDS011;73868;52.172;10.668;2023-12-14T01:25:49;12.93;;;9.43;;
83840;SDS011;73868;52.172;10.668;2023-12-14T01:28:15;14.17;;;10.73;;
83840;SDS011;73868;52.172;10.668;2023-12-14T01:30:40;13.27;;;10.17;;
83840;SDS011;73868;52.172;10.668;2023-12-14T01:33:06;14.33;;;10.90;;
83840;SDS011;73868;52.172;10.668;2023-12-14T01:35:31;14.33;;;10.60;;
83840;SDS011;73868;52.172;10.668;2023-12-14T01:37:57;15.50;;;10.33;;
83840;SDS011;73868;52.172;10.668;2023-12-14T01:40:22;13.47;;;10.07;;
83840;SDS011;73868;52.172;10.668;2023-12-14T01:42:48;14.50;;;9.83;;
83840;SDS011;73868;52.172;10.668;2023-12-14T01:45:13;14.87;;;10.13;;
83840;SDS011;73868;52.172;10.668;2023-12-14T01:47:41;15.43;;;11.03;;
83840;SDS011;73868;52.172;10.668;2023-12-14T01:50:07;15.23;;;10.87;;
83840;SDS011;73868;52.172;10.668;2023-12-14T01:52:33;14.93;;;10.33;;
83840;SDS011;73868;52.172;10.668;2023-12-14T01:54:59;14.43;;;11.10;;
83840;SDS011;73868;52.172;10.668;2023-12-14T01:57:24;16.10;;;11.57;;
83840;SDS011;73868;52.172;10.668;2023-12-14T01:59:50;15.23;;;10.17;;
83840;SDS011;73868;52.172;10.668;2023-12-14T02:02:16;14.27;;;10.37;;
83840;SDS011;73868;52.172;10.668;2023-12-14T02:04:41;12.87;;;9.50;;
83840;SDS011;73868;52.172;10.668;2023-12-14T02:07:07;14.20;;;9.90;;
83840;SDS011;73868;52.172;10.668;2023-12-14T02:09:32;15.47;;;10.23;;
83840;SDS011;73868;52.172;10.668;2023-12-14T02:11:58;14.20;;;10.03;;
83840;SDS011;73868;52.172;10.668;2023-12-14T02:14:23;14.17;;;9.97;;
83840;SDS011;73868;52.172;10.668;2023-12-14T02:16:49;13.23;;;9.93;;
83840;SDS011;73868;52.172;10.668;2023-12-14T02:19:14;14.17;;;10.83;;
83840;SDS011;73868;52.172;10.668;2023-12-14T02:21:40;15.67;;;10.40;;
83840;SDS011;73868;52.172;10.668;2023-12-14T02:24:06;14.20;;;10.53;;
83840;SDS011;73868;52.172;10.668;2023-12-14T02:26:31;13.47;;;9.70;;
83840;SDS011;73868;52.172;10.668;2023-12-14T02:28:57;13.90;;;9.80;;
83840;SDS011;73868;52.172;10.668;2023-12-14T02:31:22;14.67;;;10.20;;
83840;SDS011;73868;52.172;10.668;2023-12-14T02:33:48;15.20;;;10.37;;
83840;SDS011;73868;52.172;10.668;2023-12-14T02:36:14;14.37;;;10.37;;
83840;SDS011;73868;52.172;10.668;2023-12-14T02:38:39;15.10;;;10.63;;
83840;SDS011;73868;52.172;10.668;2023-12-14T02:41:05;14.40;;;9.93;;
83840;SDS011;73868;52.172;10.668;2023-12-14T02:43:30;15.60;;;10.50;;
83840;SDS011;73868;52.172;10.668;2023-12-14T02:45:56;14.73;;;10.87;;
83840;SDS011;73868;52.172;10.668;2023-12-14T02:48:26;14.67;;;10.43;;
83840;SDS011;73868;52.172;10.668;2023-12-14T02:50:53;14.33;;;10.23;;
83840;SDS011;73868;52.172;10.668;2023-12-14T02:53:18;15.03;;;10.87;;
83840;SDS011;73868;52.172;10.668;2023-12-14T02:55:44;14.60;;;10.73;;
83840;SDS011;73868;52.172;10.668;2023-12-14T02:58:09;14.97;;;10.23;;
83840;SDS011;73868;52.172;10.668;2023-12-14T03:00:35;12.47;;;9.70;;
83840;SDS011;73868;52.172;10.668;2023-12-14T03:03:01;13.10;;;9.63;;
83840;SDS011;73868;52.172;10.668;2023-12-14T03:05:26;11.93;;;9.23;;
83840;SDS011;73868;52.172;10.668;2023-12-14T03:07:52;10.97;;;8.77;;
83840;SDS011;73868;52.172;10.668;2023-12-14T03:10:17;11.53;;;7.57;;
83840;SDS011;73868;52.172;10.668;2023-12-14T03:12:43;8.60;;;7.33;;
83840;SDS011;73868;52.172;10.668;2023-12-14T03:15:09;8.93;;;7.63;;
83840;SDS011;73868;52.172;10.668;2023-12-14T03:17:34;9.40;;;7.30;;
83840;SDS011;73868;52.172;10.668;2023-12-14T03:20:00;9.43;;;7.10;;
83840;SDS011;73868;52.172;10.668;2023-12-14T03:22:26;8.70;;;7.57;;
83840;SDS011;73868;52.172;10.668;2023-12-14T03:24:51;9.40;;;7.80;;
83840;SDS011;73868;52.172;10.668;2023-12-14T03:27:17;8.20;;;7.27;;
83840;SDS011;73868;52.172;10.668;2023-12-14T03:29:42;10.90;;;7.60;;
83840;SDS011;73868;52.172;10.668;2023-12-14T03:32:08;9.03;;;7.10;;
83840;SDS011;73868;52.172;10.668;2023-12-14T03:34:33;8.87;;;7.50;;
83840;SDS011;73868;52.172;10.668;2023-12-14T03:36:59;9.37;;;7.87;;
83840;SDS011;73868;52.172;10.668;2023-12-14T03:39:24;8.90;;;7.53;;
83840;SDS011;73868;52.172;10.668;2023-12-14T03:41:50;8.37;;;6.97;;
83840;SDS011;73868;52.172;10.668;2023-12-14T03:44:16;7.07;;;6.37;;
83840;SDS011;73868;52.172;10.668;2023-12-14T03:46:41;7.13;;;6.43;;
83840;SDS011;73868;52.172;10.668;2023-12-14T03:49:07;7.30;;;6.40;;
83840;SDS011;73868;52.172;10.668;2023-12-14T03:51:33;5.73;;;5.23;;
83840;SDS011;73868;52.172;10.668;2023-12-14T03:53:59;5.93;;;5.33;;
83840;SDS011;73868;52.172;10.668;2023-12-14T03:56:25;5.50;;;4.83;;
83840;SDS011;73868;52.172;10.668;2023-12-14T03:58:50;5.57;;;4.50;;
83840;SDS011;73868;52.172;10.668;2023-12-14T04:01:17;5.53;;;4.67;;
83840;SDS011;73868;52.172;10.668;2023-12-14T04:03:43;4.40;;;3.90;;
83840;SDS011;73868;52.172;10.668;2023-12-14T04:06:09;5.07;;;4.53;;
83840;SDS011;73868;52.172;10.668;2023-12-14T04:08:35;5.27;;;4.77;;
83840;SDS011;73868;52.172;10.668;2023-12-14T04:11:01;4.93;;;4.40;;
83840;SDS011;73868;52.172;10.668;2023-12-14T04:13:26;6.80;;;4.23;;
83840;SDS011;73868;52.172;10.668;2023-12-14T04:15:52;4.43;;;4.03;;
83840;SDS011;73868;52.172;10.668;2023-12-14T04:18:18;4.67;;;3.90;;
83840;SDS011;73868;52.172;10.668;2023-12-14T04:20:43;5.07;;;4.13;;
83840;SDS011;73868;52.172;10.668;2023-12-14T04:23:09;4.30;;;3.90;;
83840;SDS011;73868;52.172;10.668;2023-12-14T04:25:34;4.83;;;3.50;;
83840;SDS011;73868;52.172;10.668;2023-12-14T04:28:00;4.50;;;3.47;;
83840;SDS011;73868;52.172;10.668;2023-12-14T04:30:25;4.40;;;4.00;;
83840;SDS011;73868;52.172;10.668;2023-12-14T04:32:51;4.47;;;4.07;;
83840;SDS011;73868;52.172;10.668;2023-12-14T04:35:17;4.20;;;3.80;;
83840;SDS011;73868;52.172;10.668;2023-12-14T04:37:42;4.40;;;4.00;;
83840;SDS011;73868;52.172;10.668;2023-12-14T04:40:08;4.47;;;3.93;;
83840;SDS011;73868;52.172;10.668;2023-12-14T04:42:34;6.03;;;4.60;;
83840;SDS011;73868;52.172;10.668;2023-12-14T04:45:00;5.87;;;4.60;;
83840;SDS011;73868;52.172;10.668;2023-12-14T04:47:26;5.60;;;4.87;;
83840;SDS011;73868;52.172;10.668;2023-12-14T04:49:51;5.10;;;4.60;;
83840;SDS011;73868;52.172;10.668;2023-12-14T04:52:18;4.70;;;4.30;;
83840;SDS011;73868;52.172;10.668;2023-12-14T04:54:43;5.80;;;5.03;;
83840;SDS011;73868;52.172;10.668;2023-12-14T04:57:09;7.00;;;5.40;;
83840;SDS011;73868;52.172;10.668;2023-12-14T04:59:34;5.00;;;4.37;;
83840;SDS011;73868;52.172;10.668;2023-12-14T05:02:00;6.50;;;5.80;;
83840;SDS011;73868;52.172;10.668;2023-12-14T05:04:25;6.33;;;5.73;;
83840;SDS011;73868;52.172;10.668;2023-12-14T05:06:51;6.03;;;5.43;;
83840;SDS011;73868;52.172;10.668;2023-12-14T05:09:16;7.47;;;6.33;;
83840;SDS011;73868;52.172;10.668;2023-12-14T05:11:42;7.73;;;6.73;;
83840;SDS011;73868;52.172;10.668;2023-12-14T05:14:08;6.83;;;6.00;;
83840;SDS011;73868;52.172;10.668;2023-12-14T05:16:34;7.23;;;6.17;;
83840;SDS011;73868;52.172;10.668;2023-12-14T05:18:59;5.13;;;4.63;;
83840;SDS011;73868;52.172;10.668;2023-12-14T05:21:25;6.10;;;5.03;;
83840;SDS011;73868;52.172;10.668;2023-12-14T05:23:50;6.63;;;5.13;;
83840;SDS011;73868;52.172;10.668;2023-12-14T05:26:16;5.80;;;5.20;;
83840;SDS011;73868;52.172;10.668;2023-12-14T05:28:42;6.33;;;5.67;;
83840;SDS011;73868;52.172;10.668;2023-12-14T05:31:07;6.80;;;6.10;;
83840;SDS011;73868;52.172;10.668;2023-12-14T05:33:36;6.93;;;6.30;;
83840;SDS011;73868;52.172;10.668;2023-12-14T05:36:04;8.30;;;7.50;;
83840;SDS011;73868;52.172;10.668;2023-12-14T05:38:34;8.03;;;7.10;;
83840;SDS011;73868;52.172;10.668;2023-12-14T05:41:00;9.00;;;7.33;;
83840;SDS011;73868;52.172;10.668;2023-12-14T05:43:25;8.67;;;7.77;;
83840;SDS011;73868;52.172;10.668;2023-12-14T05:45:51;9.10;;;7.37;;
83840;SDS011;73868;52.172;10.668;2023-12-14T05:48:16;10.53;;;8.37;;
83840;SDS011;73868;52.172;10.668;2023-12-14T05:50:42;8.80;;;7.63;;
83840;SDS011;73868;52.172;10.668;2023-12-14T05:53:07;8.20;;;6.70;;
83840;SDS011;73868;52.172;10.668;2023-12-14T05:55:33;8.57;;;6.57;;
83840;SDS011;73868;52.172;10.668;2023-12-14T05:57:58;6.30;;;5.57;;
83840;SDS011;73868;52.172;10.668;2023-12-14T06:00:24;7.73;;;6.20;;
83840;SDS011;73868;52.172;10.668;2023-12-14T06:02:49;6.33;;;5.27;;
83840;SDS011;73868;52.172;10.668;2023-12-14T06:05:15;6.30;;;5.20;;
83840;SDS011;73868;52.172;10.668;2023-12-14T06:07:41;4.97;;;4.40;;
83840;SDS011;73868;52.172;10.668;2023-12-14T06:10:06;5.90;;;5.30;;
83840;SDS011;73868;52.172;10.668;2023-12-14T06:12:32;4.87;;;4.47;;
83840;SDS011;73868;52.172;10.668;2023-12-14T06:14:58;5.53;;;5.03;;
83840;SDS011;73868;52.172;10.668;2023-12-14T06:17:23;6.10;;;5.20;;
83840;SDS011;73868;52.172;10.668;2023-12-14T06:19:49;5.60;;;5.10;;
83840;SDS011;73868;52.172;10.668;2023-12-14T06:22:14;5.43;;;4.93;;
83840;SDS011;73868;52.172;10.668;2023-12-14T06:24:40;5.77;;;5.17;;
83840;SDS011;73868;52.172;10.668;2023-12-14T06:27:05;6.10;;;5.50;;
83840;SDS011;73868;52.172;10.668;2023-12-14T06:29:31;6.30;;;5.70;;
83840;SDS011;73868;52.172;10.668;2023-12-14T06:31:56;7.63;;;5.93;;
83840;SDS011;73868;52.172;10.668;2023-12-14T06:34:22;8.23;;;7.38;;
83840;SDS011;73868;52.172;10.668;2023-12-14T06:36:47;16.27;;;12.37;;
83840;SDS011;73868;52.172;10.668;2023-12-14T06:39:13;9.07;;;8.10;;
83840;SDS011;73868;52.172;10.668;2023-12-14T06:41:39;8.93;;;7.43;;
83840;SDS011;73868;52.172;10.668;2023-12-14T06:44:04;8.60;;;7.70;;
83840;SDS011;73868;52.172;10.668;2023-12-14T06:46:30;10.13;;;8.17;;
83840;SDS011;73868;52.172;10.668;2023-12-14T06:48:56;11.83;;;9.17;;
83840;SDS011;73868;52.172;10.668;2023-12-14T06:51:22;12.13;;;9.50;;
83840;SDS011;73868;52.172;10.668;2023-12-14T06:53:48;10.77;;;9.67;;
83840;SDS011;73868;52.172;10.668;2023-12-14T06:56:14;10.50;;;9.40;;
83840;SDS011;73868;52.172;10.668;2023-12-14T06:58:40;9.93;;;8.90;;
83840;SDS011;73868;52.172;10.668;2023-12-14T07:01:07;10.33;;;8.93;;
83840;SDS011;73868;52.172;10.668;2023-12-14T07:03:33;10.07;;;8.80;;
83840;SDS011;73868;52.172;10.668;2023-12-14T07:05:58;10.47;;;9.07;;
83840;SDS011;73868;52.172;10.668;2023-12-14T07:08:24;10.13;;;9.00;;
83840;SDS011;73868;52.172;10.668;2023-12-14T07:10:50;10.70;;;9.60;;
83840;SDS011;73868;52.172;10.668;2023-12-14T07:13:15;10.63;;;9.03;;
83840;SDS011;73868;52.172;10.668;2023-12-14T07:15:41;10.23;;;9.07;;
83840;SDS011;73868;52.172;10.668;2023-12-14T07:18:06;9.43;;;8.37;;
83840;SDS011;73868;52.172;10.668;2023-12-14T07:20:32;10.23;;;8.47;;
83840;SDS011;73868;52.172;10.668;2023-12-14T07:22:58;9.17;;;8.17;;
83840;SDS011;73868;52.172;10.668;2023-12-14T07:25:23;9.47;;;8.57;;
83840;SDS011;73868;52.172;10.668;2023-12-14T07:27:49;10.90;;;8.60;;
83840;SDS011;73868;52.172;10.668;2023-12-14T07:30:15;13.83;;;10.43;;
83840;SDS011;73868;52.172;10.668;2023-12-14T07:32:41;11.57;;;9.47;;
83840;SDS011;73868;52.172;10.668;2023-12-14T07:35:07;15.40;;;9.80;;
83840;SDS011;73868;52.172;10.668;2023-12-14T07:37:33;13.13;;;10.80;;
83840;SDS011;73868;52.172;10.668;2023-12-14T07:39:58;13.07;;;10.73;;
83840;SDS011;73868;52.172;10.668;2023-12-14T07:42:24;12.10;;;10.53;;
83840;SDS011;73868;52.172;10.668;2023-12-14T07:44:50;11.47;;;9.10;;
83840;SDS011;73868;52.172;10.668;2023-12-14T07:47:16;16.70;;;11.03;;
83840;SDS011;73868;52.172;10.668;2023-12-14T07:49:41;16.03;;;10.57;;
83840;SDS011;73868;52.172;10.668;2023-12-14T07:52:07;16.63;;;10.60;;
83840;SDS011;73868;52.172;10.668;2023-12-14T07:54:33;12.37;;;9.53;;
83840;SDS011;73868;52.172;10.668;2023-12-14T07:56:58;14.50;;;11.13;;
83840;SDS011;73868;52.172;10.668;2023-12-14T07:59:24;12.07;;;9.60;;
83840;SDS011;73868;52.172;10.668;2023-12-14T08:01:49;11.60;;;10.07;;
83840;SDS011;73868;52.172;10.668;2023-12-14T08:04:15;10.27;;;9.07;;
83840;SDS011;73868;52.172;10.668;2023-12-14T08:06:40;10.67;;;9.37;;
83840;SDS011;73868;52.172;10.668;2023-12-14T08:09:07;13.30;;;9.37;;
83840;SDS011;73868;52.172;10.668;2023-12-14T08:11:32;11.60;;;10.27;;
83840;SDS011;73868;52.172;10.668;2023-12-14T08:13:58;11.47;;;10.30;;
83840;SDS011;73868;52.172;10.668;2023-12-14T08:16:24;12.33;;;10.50;;
83840;SDS011;73868;52.172;10.668;2023-12-14T08:18:50;13.17;;;10.60;;
83840;SDS011;73868;52.172;10.668;2023-12-14T08:21:15;12.67;;;10.97;;
83840;SDS011;73868;52.172;10.668;2023-12-14T08:23:41;13.00;;;10.60;;
83840;SDS011;73868;52.172;10.668;2023-12-14T08:26:07;12.27;;;9.63;;
83840;SDS011;73868;52.172;10.668;2023-12-14T08:28:35;11.90;;;10.07;;
83840;SDS011;73868;52.172;10.668;2023-12-14T08:31:00;10.07;;;9.07;;
83840;SDS011;73868;52.172;10.668;2023-12-14T08:33:28;11.83;;;9.53;;
83840;SDS011;73868;52.172;10.668;2023-12-14T08:35:54;9.33;;;8.33;;
83840;SDS011;73868;52.172;10.668;2023-12-14T08:38:20;9.83;;;8.83;;
83840;SDS011;73868;52.172;10.668;2023-12-14T08:40:46;9.00;;;8.03;;
83840;SDS011;73868;52.172;10.668;2023-12-14T08:43:11;10.60;;;9.10;;
83840;SDS011;73868;52.172;10.668;2023-12-14T08:45:37;11.20;;;8.93;;
83840;SDS011;73868;52.172;10.668;2023-12-14T08:48:03;11.73;;;9.60;;
83840;SDS011;73868;52.172;10.668;2023-12-14T08:50:29;11.37;;;9.80;;
83840;SDS011;73868;52.172;10.668;2023-12-14T08:52:55;11.93;;;8.67;;
83840;SDS011;73868;52.172;10.668;2023-12-14T08:55:20;11.00;;;9.47;;
83840;SDS011;73868;52.172;10.668;2023-12-14T08:57:46;10.83;;;9.53;;
83840;SDS011;73868;52.172;10.668;2023-12-14T09:00:12;10.67;;;9.23;;
83840;SDS011;73868;52.172;10.668;2023-12-14T09:02:38;11.13;;;9.43;;
83840;SDS011;73868;52.172;10.668;2023-12-14T09:05:04;11.53;;;10.27;;
83840;SDS011;73868;52.172;10.668;2023-12-14T09:07:30;11.40;;;9.43;;
83840;SDS011;73868;52.172;10.668;2023-12-14T09:09:56;11.73;;;10.07;;
83840;SDS011;73868;52.172;10.668;2023-12-14T09:12:23;13.23;;;10.50;;
83840;SDS011;73868;52.172;10.668;2023-12-14T09:14:49;15.47;;;13.00;;
83840;SDS011;73868;52.172;10.668;2023-12-14T09:17:14;11.87;;;10.03;;
83840;SDS011;73868;52.172;10.668;2023-12-14T09:19:40;12.20;;;10.90;;
83840;SDS011;73868;52.172;10.668;2023-12-14T09:22:05;14.23;;;12.10;;
83840;SDS011;73868;52.172;10.668;2023-12-14T09:24:31;11.10;;;9.87;;
83840;SDS011;73868;52.172;10.668;2023-12-14T09:26:56;10.23;;;9.17;;
83840;SDS011;73868;52.172;10.668;2023-12-14T09:29:22;11.00;;;9.90;;
83840;SDS011;73868;52.172;10.668;2023-12-14T09:31:47;10.60;;;9.50;;
83840;SDS011;73868;52.172;10.668;2023-12-14T09:34:13;9.77;;;8.60;;
83840;SDS011;73868;52.172;10.668;2023-12-14T09:36:39;10.83;;;9.40;;
83840;SDS011;73868;52.172;10.668;2023-12-14T09:39:05;9.70;;;8.70;;
83840;SDS011;73868;52.172;10.668;2023-12-14T09:41:34;10.17;;;9.13;;
83840;SDS011;73868;52.172;10.668;2023-12-14T09:43:59;9.93;;;8.70;;
83840;SDS011;73868;52.172;10.668;2023-12-14T09:46:27;13.43;;;11.50;;
83840;SDS011;73868;52.172;10.668;2023-12-14T09:48:52;12.30;;;10.13;;
83840;SDS011;73868;52.172;10.668;2023-12-14T09:51:20;10.60;;;9.23;;
83840;SDS011;73868;52.172;10.668;2023-12-14T09:53:48;9.13;;;8.17;;
83840;SDS011;73868;52.172;10.668;2023-12-14T09:56:14;12.93;;;11.47;;
83840;SDS011;73868;52.172;10.668;2023-12-14T09:58:39;10.77;;;9.67;;
83840;SDS011;73868;52.172;10.668;2023-12-14T10:04:10;8.23;;;7.37;;
83840;SDS011;73868;52.172;10.668;2023-12-14T10:06:38;16.07;;;11.77;;
83840;SDS011;73868;52.172;10.668;2023-12-14T10:09:04;10.00;;;8.33;;
83840;SDS011;73868;52.172;10.668;2023-12-14T10:11:34;8.77;;;7.87;;
83840;SDS011;73868;52.172;10.668;2023-12-14T10:14:02;10.80;;;9.37;;
83840;SDS011;73868;52.172;10.668;2023-12-14T10:16:42;10.97;;;9.10;;
83840;SDS011;73868;52.172;10.668;2023-12-14T10:19:07;11.23;;;9.27;;
83840;SDS011;73868;52.172;10.668;2023-12-14T10:21:33;11.03;;;8.67;;
83840;SDS011;73868;52.172;10.668;2023-12-14T10:24:01;9.43;;;8.10;;
83840;SDS011;73868;52.172;10.668;2023-12-14T10:26:27;7.10;;;6.40;;
83840;SDS011;73868;52.172;10.668;2023-12-14T10:28:53;8.43;;;7.23;;
83840;SDS011;73868;52.172;10.668;2023-12-14T10:31:19;9.67;;;7.20;;
83840;SDS011;73868;52.172;10.668;2023-12-14T10:33:46;14.13;;;7.00;;
83840;SDS011;73868;52.172;10.668;2023-12-14T10:36:13;7.33;;;6.23;;
83840;SDS011;73868;52.172;10.668;2023-12-14T10:38:39;7.40;;;5.87;;
83840;SDS011;73868;52.172;10.668;2023-12-14T10:41:08;8.77;;;6.70;;
83840;SDS011;73868;52.172;10.668;2023-12-14T10:43:36;9.33;;;8.43;;
83840;SDS011;73868;52.172;10.668;2023-12-14T10:46:04;9.83;;;7.33;;
83840;SDS011;73868;52.172;10.668;2023-12-14T10:48:32;6.87;;;6.17;;
83840;SDS011;73868;52.172;10.668;2023-12-14T10:51:02;7.87;;;6.70;;
83840;SDS011;73868;52.172;10.668;2023-12-14T10:53:30;8.43;;;7.53;;
83840;SDS011;73868;52.172;10.668;2023-12-14T10:55:56;6.63;;;5.87;;
83840;SDS011;73868;52.172;10.668;2023-12-14T10:58:25;7.63;;;6.57;;
83840;SDS011;73868;52.172;10.668;2023-12-14T11:00:58;8.13;;;6.50;;
83840;SDS011;73868;52.172;10.668;2023-12-14T11:03:26;7.20;;;5.87;;
83840;SDS011;73868;52.172;10.668;2023-12-14T11:05:51;14.40;;;11.33;;
83840;SDS011;73868;52.172;10.668;2023-12-14T11:08:17;7.67;;;5.90;;
83840;SDS011;73868;52.172;10.668;2023-12-14T11:10:51;8.33;;;7.33;;
83840;SDS011;73868;52.172;10.668;2023-12-14T11:13:20;6.53;;;5.03;;
83840;SDS011;73868;52.172;10.668;2023-12-14T11:15:50;6.37;;;5.77;;
83840;SDS011;73868;52.172;10.668;2023-12-14T11:25:40;8.33;;;7.50;;
83840;SDS011;73868;52.172;10.668;2023-12-14T11:28:06;7.57;;;6.03;;
83840;SDS011;73868;52.172;10.668;2023-12-14T11:30:33;6.50;;;5.60;;
83840;SDS011;73868;52.172;10.668;2023-12-14T11:32:59;6.00;;;5.40;;
83840;SDS011;73868;52.172;10.668;2023-12-14T11:35:25;6.57;;;5.77;;
83840;SDS011;73868;52.172;10.668;2023-12-14T11:37:51;5.83;;;5.20;;
83840;SDS011;73868;52.172;10.668;2023-12-14T11:40:16;6.33;;;5.73;;
83840;SDS011;73868;52.172;10.668;2023-12-14T11:42:57;7.63;;;6.03;;
83840;SDS011;73868;52.172;10.668;2023-12-14T11:45:23;8.37;;;7.47;;
83840;SDS011;73868;52.172;10.668;2023-12-14T11:47:48;6.53;;;5.60;;
83840;SDS011;73868;52.172;10.668;2023-12-14T11:50:15;7.70;;;6.93;;
83840;SDS011;73868;52.172;10.668;2023-12-14T11:52:41;8.30;;;7.43;;
83840;SDS011;73868;52.172;10.668;2023-12-14T11:55:09;10.13;;;7.43;;
83840;SDS011;73868;52.172;10.668;2023-12-14T11:57:35;8.20;;;7.00;;
83840;SDS011;73868;52.172;10.668;2023-12-14T12:00:01;11.50;;;8.87;;
83840;SDS011;73868;52.172;10.668;2023-12-14T12:02:28;9.90;;;8.50;;
83840;SDS011;73868;52.172;10.668;2023-12-14T12:04:53;10.10;;;8.23;;
83840;SDS011;73868;52.172;10.668;2023-12-14T12:07:19;10.10;;;8.70;;
83840;SDS011;73868;52.172;10.668;2023-12-14T12:09:44;9.90;;;7.97;;
83840;SDS011;73868;52.172;10.668;2023-12-14T12:12:11;12.33;;;9.17;;
83840;SDS011;73868;52.172;10.668;2023-12-14T12:14:38;9.87;;;8.03;;
83840;SDS011;73868;52.172;10.668;2023-12-14T12:17:05;11.30;;;8.80;;
83840;SDS011;73868;52.172;10.668;2023-12-14T12:19:34;12.47;;;9.10;;
83840;SDS011;73868;52.172;10.668;2023-12-14T12:22:01;11.30;;;8.70;;
83840;SDS011;73868;52.172;10.668;2023-12-14T12:24:27;11.77;;;8.13;;
83840;SDS011;73868;52.172;10.668;2023-12-14T12:26:53;9.53;;;7.77;;
83840;SDS011;73868;52.172;10.668;2023-12-14T12:29:19;10.90;;;7.60;;
83840;SDS011;73868;52.172;10.668;2023-12-14T12:31:45;11.00;;;8.20;;
83840;SDS011;73868;52.172;10.668;2023-12-14T12:34:11;12.97;;;8.70;;
83840;SDS011;73868;52.172;10.668;2023-12-14T12:36:37;10.20;;;8.43;;
83840;SDS011;73868;52.172;10.668;2023-12-14T12:39:03;10.70;;;8.70;;
83840;SDS011;73868;52.172;10.668;2023-12-14T12:41:31;10.97;;;8.30;;
83840;SDS011;73868;52.172;10.668;2023-12-14T12:43:57;10.37;;;7.83;;
83840;SDS011;73868;52.172;10.668;2023-12-14T12:46:24;11.87;;;9.77;;
83840;SDS011;73868;52.172;10.668;2023-12-14T12:48:49;11.77;;;9.60;;
83840;SDS011;73868;52.172;10.668;2023-12-14T12:51:16;12.57;;;9.60;;
83840;SDS011;73868;52.172;10.668;2023-12-14T12:53:42;12.77;;;9.80;;
83840;SDS011;73868;52.172;10.668;2023-12-14T12:56:07;13.33;;;9.73;;
83840;SDS011;73868;52.172;10.668;2023-12-14T12:58:33;11.63;;;9.20;;
83840;SDS011;73868;52.172;10.668;2023-12-14T13:00:59;11.37;;;9.20;;
83840;SDS011;73868;52.172;10.668;2023-12-14T13:03:24;14.07;;;9.60;;
83840;SDS011;73868;52.172;10.668;2023-12-14T13:05:50;15.77;;;10.40;;
83840;SDS011;73868;52.172;10.668;2023-12-14T13:08:15;13.20;;;10.23;;
83840;SDS011;73868;52.172;10.668;2023-12-14T13:10:41;12.83;;;9.83;;
83840;SDS011;73868;52.172;10.668;2023-12-14T13:13:07;13.77;;;9.73;;
83840;SDS011;73868;52.172;10.668;2023-12-14T13:15:33;11.73;;;8.33;;
83840;SDS011;73868;52.172;10.668;2023-12-14T13:18:00;11.53;;;8.27;;
83840;SDS011;73868;52.172;10.668;2023-12-14T13:20:25;10.23;;;8.20;;
83840;SDS011;73868;52.172;10.668;2023-12-14T13:22:51;10.93;;;8.47;;
83840;SDS011;73868;52.172;10.668;2023-12-14T13:25:17;10.93;;;8.77;;
83840;SDS011;73868;52.172;10.668;2023-12-14T13:27:43;11.03;;;8.17;;
83840;SDS011;73868;52.172;10.668;2023-12-14T13:30:08;10.73;;;7.97;;
83840;SDS011;73868;52.172;10.668;2023-12-14T13:32:35;11.00;;;7.87;;
83840;SDS011;73868;52.172;10.668;2023-12-14T13:35:01;14.17;;;9.33;;
83840;SDS011;73868;52.172;10.668;2023-12-14T13:37:27;11.43;;;9.17;;
83840;SDS011;73868;52.172;10.668;2023-12-14T13:39:52;13.53;;;9.63;;
83840;SDS011;73868;52.172;10.668;2023-12-14T13:42:18;11.40;;;8.40;;
83840;SDS011;73868;52.172;10.668;2023-12-14T13:44:44;9.67;;;6.90;;
83840;SDS011;73868;52.172;10.668;2023-12-14T13:47:10;9.83;;;6.93;;
83840;SDS011;73868;52.172;10.668;2023-12-14T13:49:35;9.70;;;7.30;;
83840;SDS011;73868;52.172;10.668;2023-12-14T13:52:02;9.80;;;7.40;;
83840;SDS011;73868;52.172;10.668;2023-12-14T13:54:28;9.33;;;7.37;;
83840;SDS011;73868;52.172;10.668;2023-12-14T13:56:54;10.10;;;7.03;;
83840;SDS011;73868;52.172;10.668;2023-12-14T13:59:19;10.73;;;7.13;;
83840;SDS011;73868;52.172;10.668;2023-12-14T14:01:45;8.03;;;6.60;;
83840;SDS011;73868;52.172;10.668;2023-12-14T14:04:10;9.00;;;7.20;;
83840;SDS011;73868;52.172;10.668;2023-12-14T14:06:36;9.13;;;6.80;;
83840;SDS011;73868;52.172;10.668;2023-12-14T14:09:02;10.20;;;6.77;;
83840;SDS011;73868;52.172;10.668;2023-12-14T14:11:28;7.67;;;6.40;;
83840;SDS011;73868;52.172;10.668;2023-12-14T14:13:54;8.47;;;5.93;;
83840;SDS011;73868;52.172;10.668;2023-12-14T14:16:20;9.13;;;7.23;;
83840;SDS011;73868;52.172;10.668;2023-12-14T14:18:45;10.70;;;6.67;;
83840;SDS011;73868;52.172;10.668;2023-12-14T14:21:11;6.43;;;5.63;;
83840;SDS011;73868;52.172;10.668;2023-12-14T14:23:37;10.83;;;6.33;;
83840;SDS011;73868;52.172;10.668;2023-12-14T14:26:02;9.77;;;5.30;;
83840;SDS011;73868;52.172;10.668;2023-12-14T14:28:28;8.87;;;5.67;;